Time;durP1;ratioP1;P1;durP2;ratioP2;P2;SDS_P1;SDS_P2;PMS_P1;PMS_P2;Temp;Humidity;BMP_temperature;BMP_pressure;BME280_temperature;BME280_humidity;BME280_pressure;Samples;Min_cycle;Max_cycle;Signal;HPM_P1;HPM_P2
2021/07/06 00:03:03;;;;;;;4.70;4.30;;;;;;;20.42;64.35;100782.16;6218482;28;20217;-53
2021/07/06 00:06:24;;;;;;;4.32;4.03;;;;;;;20.36;64.39;100782.47;6217398;28;20233;-50
2021/07/06 00:09:47;;;;;;;11.20;4.35;;;;;;;20.19;64.78;100778.03;6213901;28;20245;-50
2021/07/06 00:13:08;;;;;;;4.35;3.95;;;;;;;20.49;64.19;100772.13;6220945;28;20453;-54
2021/07/06 00:16:29;;;;;;;3.60;3.35;;;;;;;20.30;64.70;100767.78;6219716;28;20225;-53
2021/07/06 00:19:51;;;;;;;5.82;3.97;;;;;;;20.38;64.39;100759.47;6218411;28;20261;-51
2021/07/06 00:23:12;;;;;;;3.90;3.65;;;;;;;20.29;64.45;100763.41;6210002;28;20758;-52
2021/07/06 00:26:34;;;;;;;5.53;3.60;;;;;;;20.19;64.77;100759.53;6214846;28;20595;-49
2021/07/06 00:29:55;;;;;;;4.30;3.47;;;;;;;20.54;63.64;100755.06;6216639;28;20577;-50
2021/07/06 00:33:16;;;;;;;3.58;3.38;;;;;;;20.37;64.04;100742.72;6188454;28;20674;-50
2021/07/06 00:36:37;;;;;;;3.78;3.40;;;;;;;20.44;63.80;100745.91;6194170;28;20522;-50
2021/07/06 00:39:58;;;;;;;3.00;2.80;;;;;;;19.96;65.39;100756.22;6212194;28;20315;-49
2021/07/06 00:43:21;;;;;;;3.60;3.30;;;;;;;20.27;64.63;100752.91;6212405;28;20237;-49
2021/07/06 00:46:43;;;;;;;3.50;3.17;;;;;;;20.42;63.72;100755.72;6213789;28;20242;-51
2021/07/06 00:50:08;;;;;;;3.15;2.90;;;;;;;20.09;64.80;100751.19;6206020;28;20253;-50
2021/07/06 00:53:29;;;;;;;3.00;2.80;;;;;;;20.06;65.14;100756.63;6210468;28;20503;-49
2021/07/06 00:56:51;;;;;;;2.60;2.50;;;;;;;20.30;64.34;100743.09;6213117;28;20492;-51
2021/07/06 01:00:17;;;;;;;3.22;3.03;;;;;;;20.14;64.69;100738.63;6203558;28;20242;-52
2021/07/06 01:03:37;;;;;;;4.75;3.03;;;;;;;20.12;64.78;100739.59;6213643;28;20225;-52
2021/07/06 01:06:58;;;;;;;2.90;2.70;;;;;;;20.00;65.01;100749.00;6215948;28;20228;-51
2021/07/06 01:10:19;;;;;;;3.97;2.58;;;;;;;20.00;64.83;100738.44;6213890;28;20224;-53
2021/07/06 01:13:40;;;;;;;2.67;2.35;;;;;;;19.98;65.58;100721.78;6218970;28;20237;-51
2021/07/06 01:17:04;;;;;;;2.88;2.65;;;;;;;19.95;64.88;100730.75;6216239;28;20549;-49
2021/07/06 01:20:25;;;;;;;2.85;2.65;;;;;;;20.07;65.04;100718.69;6214019;28;20232;-52
2021/07/06 01:23:48;;;;;;;3.17;2.58;;;;;;;20.05;65.03;100723.22;6213349;28;20623;-50
2021/07/06 01:27:08;;;;;;;3.47;2.17;;;;;;;19.58;66.85;100715.78;6213366;28;20229;-53
2021/07/06 01:30:29;;;;;;;2.78;2.65;;;;;;;19.86;66.01;100712.69;6214586;28;20235;-52
2021/07/06 01:33:50;;;;;;;6.22;2.88;;;;;;;19.84;65.77;100712.75;6216667;28;22570;-48
2021/07/06 01:37:11;;;;;;;2.60;2.42;;;;;;;20.10;65.29;100702.66;6217995;28;20336;-49
2021/07/06 01:40:34;;;;;;;3.53;2.05;;;;;;;20.27;64.54;100705.31;6205193;28;20260;-51
2021/07/06 01:43:55;;;;;;;3.05;2.63;;;;;;;20.28;64.48;100692.97;6216281;28;20228;-49
2021/07/06 01:47:16;;;;;;;2.97;2.78;;;;;;;20.25;64.65;100683.38;6213055;28;20245;-51
2021/07/06 01:50:39;;;;;;;2.88;2.67;;;;;;;20.52;64.01;100688.16;6214511;28;20484;-47
2021/07/06 01:54:00;;;;;;;2.60;2.40;;;;;;;20.32;64.67;100693.66;6204156;28;20257;-47
2021/07/06 01:57:24;;;;;;;3.22;2.92;;;;;;;20.24;64.56;100684.31;6214624;28;20233;-52
2021/07/06 02:00:48;;;;;;;2.80;2.47;;;;;;;20.24;64.89;100678.19;6211084;28;20236;-48
2021/07/06 02:04:09;;;;;;;2.90;2.70;;;;;;;20.24;64.92;100673.75;6200122;28;20298;-49
2021/07/06 02:07:29;;;;;;;2.28;2.13;;;;;;;20.52;64.05;100667.00;6211647;28;20234;-50
2021/07/06 02:10:52;;;;;;;2.92;2.10;;;;;;;20.52;64.29;100666.16;6219608;28;20293;-52
2021/07/06 02:14:16;;;;;;;4.20;2.55;;;;;;;20.73;63.45;100665.03;6201702;28;20225;-52
2021/07/06 02:17:38;;;;;;;2.65;2.15;;;;;;;20.56;63.96;100665.91;6214634;28;20233;-49
2021/07/06 02:21:00;;;;;;;3.25;2.30;;;;;;;20.44;64.19;100658.63;6206848;28;20228;-51
2021/07/06 02:24:21;;;;;;;3.83;2.63;;;;;;;20.53;63.98;100658.16;6211756;28;20603;-51
2021/07/06 02:27:42;;;;;;;2.92;2.63;;;;;;;20.72;63.17;100658.03;6201329;28;20527;-52
2021/07/06 02:31:05;;;;;;;3.05;2.45;;;;;;;20.52;63.81;100653.78;6195243;28;20253;-53
2021/07/06 02:34:26;;;;;;;2.42;2.33;;;;;;;20.49;64.35;100655.72;6210347;28;20221;-53
2021/07/06 02:37:48;;;;;;;2.85;2.55;;;;;;;20.46;64.31;100656.75;6222488;28;20231;-50
2021/07/06 02:41:09;;;;;;;2.40;2.20;;;;;;;20.12;65.39;100653.22;6211737;28;20230;-52
2021/07/06 02:44:30;;;;;;;2.70;2.28;;;;;;;20.18;65.07;100647.63;6208219;28;20323;-50
2021/07/06 02:47:52;;;;;;;2.70;2.40;;;;;;;20.09;65.37;100642.81;6215053;28;20607;-50
2021/07/06 02:51:17;;;;;;;2.63;2.42;;;;;;;19.94;65.63;100638.31;6216357;28;20236;-51
2021/07/06 02:54:37;;;;;;;2.28;2.10;;;;;;;20.19;65.15;100637.91;6209326;28;20233;-49
2021/07/06 02:57:58;;;;;;;3.00;2.35;;;;;;;20.04;65.17;100636.91;6215340;28;20308;-49
2021/07/06 03:01:19;;;;;;;5.03;4.47;;;;;;;19.86;66.04;100634.25;6208215;28;20229;-53
2021/07/06 03:04:41;;;;;;;3.40;2.65;;;;;;;19.71;66.96;100637.66;6213551;28;20347;-49
2021/07/06 03:08:03;;;;;;;3.40;3.00;;;;;;;20.08;65.24;100625.22;6214488;28;20244;-48
2021/07/06 03:11:24;;;;;;;3.50;3.30;;;;;;;20.27;64.25;100620.69;6210557;28;20224;-51
2021/07/06 03:14:45;;;;;;;3.40;2.30;;;;;;;20.03;64.84;100617.56;6203615;28;20237;-53
2021/07/06 03:18:06;;;;;;;3.30;2.75;;;;;;;19.32;67.29;100632.56;6208363;28;20233;-51
2021/07/06 03:21:29;;;;;;;4.07;2.72;;;;;;;19.68;66.40;100628.09;6219990;28;20237;-54
2021/07/06 03:24:49;;;;;;;3.40;3.10;;;;;;;19.44;67.08;100613.47;6215748;28;20225;-49
2021/07/06 03:28:11;;;;;;;3.63;2.83;;;;;;;19.24;67.83;100623.22;6215552;28;20275;-50
2021/07/06 03:31:32;;;;;;;4.90;3.20;;;;;;;19.45;67.47;100628.38;6217639;28;20232;-51
2021/07/06 03:34:53;;;;;;;6.03;5.47;;;;;;;19.64;66.90;100615.13;6208053;28;20636;-48
2021/07/06 03:38:15;;;;;;;4.70;3.60;;;;;;;19.60;66.72;100602.97;6199742;28;20237;-48
2021/07/06 03:41:36;;;;;;;3.55;3.25;;;;;;;20.04;65.55;100599.91;6217967;28;20237;-52
2021/07/06 03:44:57;;;;;;;3.40;3.13;;;;;;;19.89;65.38;100592.75;6222252;28;20240;-48
2021/07/06 03:48:18;;;;;;;4.63;3.67;;;;;;;19.62;66.17;100586.16;6216785;28;20232;-52
2021/07/06 03:51:39;;;;;;;3.00;2.80;;;;;;;19.64;66.10;100592.19;6212525;28;20253;-54
2021/07/06 03:55:02;;;;;;;5.97;3.55;;;;;;;19.44;66.91;100597.63;6211616;28;20233;-53
2021/07/06 03:58:23;;;;;;;10.32;9.55;;;;;;;19.69;66.38;100597.25;6216303;28;20225;-49
2021/07/06 04:01:44;;;;;;;4.68;3.33;;;;;;;19.52;66.97;100597.22;6212728;28;20230;-52
2021/07/06 04:05:06;;;;;;;4.40;3.78;;;;;;;19.47;67.34;100597.47;6228184;28;20221;-48
2021/07/06 04:08:27;;;;;;;3.58;3.38;;;;;;;19.04;68.68;100600.41;6214381;28;20237;-49
2021/07/06 04:11:49;;;;;;;3.50;3.08;;;;;;;20.00;65.92;100587.78;6218265;28;20762;-49
2021/07/06 04:15:12;;;;;;;4.68;3.42;;;;;;;20.16;64.76;100594.00;6212090;28;20525;-50
2021/07/06 04:18:33;;;;;;;3.47;3.17;;;;;;;20.26;64.62;100592.56;6214853;28;20693;-54
2021/07/06 04:21:54;;;;;;;4.05;3.75;;;;;;;20.63;63.51;100595.91;6221816;28;20229;-49
2021/07/06 04:25:16;;;;;;;3.42;3.22;;;;;;;20.27;64.45;100599.53;6194545;28;20434;-49
2021/07/06 04:28:38;;;;;;;4.18;3.25;;;;;;;19.84;65.86;100593.84;6214084;28;20245;-51
2021/07/06 04:31:59;;;;;;;4.00;3.47;;;;;;;19.82;66.30;100587.78;6220345;28;20424;-52
2021/07/06 04:35:22;;;;;;;3.50;3.20;;;;;;;19.95;66.03;100577.47;6198690;28;20595;-48
2021/07/06 04:38:43;;;;;;;3.40;3.20;;;;;;;20.12;65.41;100573.06;6213455;28;20319;-53
2021/07/06 04:42:05;;;;;;;4.05;3.67;;;;;;;20.27;64.81;100569.59;6218989;28;20221;-52
2021/07/06 04:45:27;;;;;;;3.15;2.92;;;;;;;20.03;65.90;100563.84;6214158;28;20233;-53
2021/07/06 04:48:48;;;;;;;3.53;3.20;;;;;;;19.85;66.55;100558.59;6215614;28;20588;-49
2021/07/06 04:52:09;;;;;;;3.40;3.10;;;;;;;20.18;65.93;100559.50;6211095;28;20222;-49
2021/07/06 04:55:31;;;;;;;6.80;3.85;;;;;;;20.02;66.31;100562.97;6217728;28;20575;-50
2021/07/06 04:58:52;;;;;;;3.97;3.50;;;;;;;19.83;66.74;100552.53;6216136;28;20221;-53
2021/07/06 05:02:14;;;;;;;3.15;2.95;;;;;;;20.19;66.15;100548.03;6222814;28;20534;-51
2021/07/06 05:05:39;;;;;;;4.35;3.95;;;;;;;19.44;68.36;100556.25;6206658;28;20218;-51
2021/07/06 05:09:00;;;;;;;3.88;3.58;;;;;;;19.82;67.29;100556.09;6211434;28;20311;-53
2021/07/06 05:12:22;;;;;;;3.63;2.75;;;;;;;19.97;67.05;100558.88;6213664;28;20522;-46
2021/07/06 05:15:43;;;;;;;4.88;4.05;;;;;;;19.47;68.73;100556.06;6212834;28;20771;-52
2021/07/06 05:19:05;;;;;;;5.90;3.47;;;;;;;19.54;68.15;100561.91;6208907;28;20233;-48
2021/07/06 05:22:26;;;;;;;4.55;3.75;;;;;;;19.48;68.68;100564.84;6212512;28;20279;-50
2021/07/06 05:25:47;;;;;;;4.05;3.40;;;;;;;19.58;68.43;100576.66;6189296;28;20328;-51
2021/07/06 05:29:08;;;;;;;3.53;3.22;;;;;;;19.69;68.45;100594.59;6209916;28;20241;-51
2021/07/06 05:32:29;;;;;;;7.28;3.65;;;;;;;19.64;68.66;100608.06;6209984;28;20233;-54
2021/07/06 05:35:52;;;;;;;3.50;2.80;;;;;;;20.17;67.22;100598.31;6208488;28;20237;-47
2021/07/06 05:39:12;;;;;;;5.25;3.10;;;;;;;20.30;67.10;100602.94;6198096;28;20229;-49
2021/07/06 05:42:34;;;;;;;3.92;3.63;;;;;;;20.00;67.66;100596.56;6206326;28;20232;-51
2021/07/06 05:45:55;;;;;;;3.83;2.92;;;;;;;19.90;68.42;100599.78;6209477;28;21339;-49
2021/07/06 05:49:16;;;;;;;3.60;3.30;;;;;;;20.00;68.17;100599.19;6203490;28;20246;-47
2021/07/06 05:52:39;;;;;;;3.55;3.33;;;;;;;19.80;69.43;100600.22;6200269;28;21089;-50
2021/07/06 05:56:00;;;;;;;3.40;3.20;;;;;;;20.34;66.78;100600.09;6186821;28;20221;-48
2021/07/06 05:59:21;;;;;;;3.30;3.00;;;;;;;20.72;66.05;100591.03;6211894;28;20225;-48
2021/07/06 06:02:42;;;;;;;3.78;3.05;;;;;;;20.68;65.93;100593.00;6208437;28;20226;-50
2021/07/06 06:06:03;;;;;;;2.75;2.55;;;;;;;20.36;66.94;100581.50;6211499;28;20609;-54
2021/07/06 06:09:25;;;;;;;4.95;3.25;;;;;;;20.31;67.21;100565.00;6203861;28;20228;-51
2021/07/06 06:12:46;;;;;;;3.70;2.90;;;;;;;20.30;67.59;100552.72;6195662;28;20233;-48
2021/07/06 06:16:08;;;;;;;3.45;3.10;;;;;;;20.71;66.51;100550.50;6210259;28;20241;-47
2021/07/06 06:19:29;;;;;;;3.22;3.03;;;;;;;21.13;65.00;100550.78;6208426;28;20319;-48
2021/07/06 06:22:50;;;;;;;5.00;3.10;;;;;;;20.68;66.27;100560.41;6211243;28;20697;-49
2021/07/06 06:26:12;;;;;;;2.92;2.72;;;;;;;20.37;67.41;100562.03;6208107;28;20233;-50
2021/07/06 06:29:33;;;;;;;3.38;2.97;;;;;;;20.71;66.78;100569.03;6211331;28;20232;-49
2021/07/06 06:32:55;;;;;;;7.60;3.08;;;;;;;20.94;65.81;100553.66;6215202;28;20225;-53
2021/07/06 06:36:16;;;;;;;3.63;2.22;;;;;;;21.47;64.40;100549.72;6206092;28;20901;-49
2021/07/06 06:39:37;;;;;;;3.42;2.45;;;;;;;22.14;62.10;100542.16;6204660;28;20237;-47
2021/07/06 06:43:01;;;;;;;6.28;2.33;;;;;;;22.14;62.06;100530.69;6198398;28;20630;-48
2021/07/06 06:46:22;;;;;;;3.08;2.00;;;;;;;22.06;62.13;100530.31;6201650;28;20758;-52
2021/07/06 06:49:43;;;;;;;2.83;2.60;;;;;;;22.08;61.82;100533.72;6176795;28;20260;-49
2021/07/06 06:53:04;;;;;;;3.47;2.05;;;;;;;21.82;62.66;100533.53;6210387;28;20244;-50
2021/07/06 06:56:25;;;;;;;2.58;2.35;;;;;;;21.70;63.40;100535.13;6210771;28;20220;-49
2021/07/06 06:59:47;;;;;;;3.58;2.22;;;;;;;22.07;61.57;100526.72;6208413;28;21057;-47
2021/07/06 07:03:09;;;;;;;2.22;1.90;;;;;;;22.08;61.69;100539.91;6215128;28;20626;-52
2021/07/06 07:06:30;;;;;;;2.42;1.70;;;;;;;21.71;63.00;100542.09;6209989;28;20832;-49
2021/07/06 07:09:51;;;;;;;1.70;1.60;;;;;;;21.60;63.17;100542.75;6214897;28;20233;-49
2021/07/06 07:13:13;;;;;;;2.80;1.63;;;;;;;21.87;62.60;100541.19;6220126;28;20229;-49
2021/07/06 07:16:35;;;;;;;3.58;2.22;;;;;;;22.52;60.13;100549.53;6212225;28;20225;-52
2021/07/06 07:19:56;;;;;;;2.75;1.95;;;;;;;21.83;62.59;100546.69;6209499;28;20245;-50
2021/07/06 07:23:17;;;;;;;2.92;2.05;;;;;;;21.83;62.81;100561.75;6207754;28;20745;-51
2021/07/06 07:26:38;;;;;;;2.20;1.90;;;;;;;22.20;62.03;100549.75;6201591;28;20586;-52
2021/07/06 07:29:59;;;;;;;1.60;1.48;;;;;;;21.87;63.13;100563.25;6209511;28;20237;-50
2021/07/06 07:33:21;;;;;;;2.83;2.05;;;;;;;22.02;62.66;100556.16;6214278;28;20229;-50
2021/07/06 07:36:42;;;;;;;1.60;1.33;;;;;;;22.44;61.41;100556.28;6211520;28;20225;-52
2021/07/06 07:40:04;;;;;;;4.95;2.20;;;;;;;21.68;63.34;100550.25;6204980;28;20311;-52
2021/07/06 07:43:25;;;;;;;2.42;1.80;;;;;;;22.07;62.35;100550.59;6207207;28;20234;-51
2021/07/06 07:46:46;;;;;;;2.80;1.80;;;;;;;22.70;60.62;100551.97;6213578;28;20746;-50
2021/07/06 07:50:10;;;;;;;1.95;1.73;;;;;;;22.91;59.32;100552.41;6207080;28;20233;-52
2021/07/06 07:53:30;;;;;;;1.63;1.52;;;;;;;22.60;60.62;100541.97;6210961;28;20217;-51
2021/07/06 07:56:51;;;;;;;3.25;2.88;;;;;;;23.16;58.55;100533.06;6215257;28;20328;-53
2021/07/06 08:00:15;;;;;;;1.38;1.27;;;;;;;23.54;57.63;100540.31;6213462;28;20237;-49
2021/07/06 08:03:37;;;;;;;3.08;2.10;;;;;;;23.67;56.69;100527.88;6207319;28;20237;-52
2021/07/06 08:06:59;;;;;;;1.80;1.42;;;;;;;23.72;56.54;100525.72;6210737;28;20614;-52
2021/07/06 08:10:20;;;;;;;5.03;1.70;;;;;;;23.92;55.60;100515.56;6210936;28;20237;-53
2021/07/06 08:13:41;;;;;;;2.47;1.40;;;;;;;24.04;55.13;100513.84;6211835;28;20229;-49
2021/07/06 08:17:02;;;;;;;2.65;1.27;;;;;;;24.09;54.88;100517.88;6202774;28;20253;-53
2021/07/06 08:20:22;;;;;;;2.00;1.20;;;;;;;24.68;53.37;100509.28;6197044;28;20241;-46
2021/07/06 08:23:44;;;;;;;1.50;1.40;;;;;;;24.30;54.46;100499.53;6201264;28;20358;-53
2021/07/06 08:27:06;;;;;;;2.03;1.80;;;;;;;23.84;54.83;100507.28;6211411;28;20324;-48
2021/07/06 08:30:26;;;;;;;2.15;1.55;;;;;;;24.18;54.23;100505.75;6202850;28;20233;-49
2021/07/06 08:33:48;;;;;;;2.28;1.60;;;;;;;23.57;55.64;100502.88;6204398;28;20237;-51
2021/07/06 08:37:08;;;;;;;3.63;1.95;;;;;;;23.65;55.27;100511.19;6207456;28;20249;-48
2021/07/06 08:40:31;;;;;;;1.40;1.30;;;;;;;23.91;54.88;100513.88;6204207;28;20244;-50
2021/07/06 08:43:52;;;;;;;1.55;1.45;;;;;;;24.32;53.56;100512.75;6203500;28;20800;-48
2021/07/06 08:47:16;;;;;;;2.25;1.00;;;;;;;25.39;51.48;100508.50;6206632;28;20233;-49
2021/07/06 08:50:37;;;;;;;1.38;1.27;;;;;;;25.57;51.66;100517.78;6208797;28;20237;-47
2021/07/06 08:53:58;;;;;;;1.95;1.55;;;;;;;25.32;52.28;100524.97;6204268;28;20225;-53
2021/07/06 08:57:22;;;;;;;1.65;1.50;;;;;;;25.40;52.46;100526.22;6216052;28;21096;-64
2021/07/06 09:00:42;;;;;;;3.38;1.45;;;;;;;25.27;52.38;100520.94;6203599;28;20237;-62
2021/07/06 09:04:05;;;;;;;1.48;1.38;;;;;;;25.45;51.98;100524.88;6208635;28;20311;-62
2021/07/06 09:07:40;;;;;;;2.78;1.13;;;;;;;25.66;51.62;100535.69;6203733;28;20449;-66
2021/07/06 09:11:14;;;;;;;3.25;1.48;;;;;;;25.31;52.64;100533.91;6203125;28;20241;-62
2021/07/06 09:14:40;;;;;;;5.05;2.08;;;;;;;24.77;54.53;100545.00;6200161;28;20607;-64
2021/07/06 09:18:09;;;;;;;3.42;2.08;;;;;;;24.29;59.14;100551.06;6205765;28;20233;-64
2021/07/06 09:21:31;;;;;;;1.75;1.58;;;;;;;24.98;56.59;100547.06;6207411;28;20224;-64
2021/07/06 09:25:02;;;;;;;2.50;1.83;;;;;;;24.49;58.83;100552.31;6205053;28;20237;-64
2021/07/06 09:28:24;;;;;;;2.58;1.80;;;;;;;24.36;58.65;100547.00;6203880;28;20772;-65
2021/07/06 09:31:46;;;;;;;1.95;1.77;;;;;;;25.03;56.44;100544.91;6205055;28;20225;-65
2021/07/06 09:35:09;;;;;;;2.70;1.75;;;;;;;25.92;53.26;100533.72;6202471;28;20222;-65
2021/07/06 09:38:30;;;;;;;5.93;2.33;;;;;;;26.74;51.93;100535.28;6204047;28;20237;-64
2021/07/06 09:41:55;;;;;;;5.65;2.00;;;;;;;25.85;51.80;100534.28;6202363;28;20681;-65
2021/07/06 09:45:22;;;;;;;3.13;1.88;;;;;;;26.03;51.66;100524.88;6207588;28;20506;-65
2021/07/06 09:48:47;;;;;;;2.85;1.65;;;;;;;26.18;50.88;100517.47;6207788;28;20241;-66
2021/07/06 09:52:11;;;;;;;2.50;1.70;;;;;;;25.86;49.81;100512.84;6200614;28;20225;-66
2021/07/06 09:55:32;;;;;;;3.17;1.88;;;;;;;25.63;50.65;100521.75;6200044;28;20226;-64
2021/07/06 09:58:57;;;;;;;2.78;1.50;;;;;;;26.33;48.83;100507.41;6202907;28;20252;-65
2021/07/06 10:02:20;;;;;;;3.08;2.00;;;;;;;26.40;48.63;100511.25;6206669;28;20236;-65
2021/07/06 10:05:44;;;;;;;2.55;2.05;;;;;;;26.26;49.30;100514.19;6210278;28;20236;-63
2021/07/06 10:09:06;;;;;;;3.03;1.73;;;;;;;26.02;49.42;100512.50;6198867;28;20221;-64
2021/07/06 10:12:27;;;;;;;2.50;1.48;;;;;;;26.35;46.95;100505.47;6206602;28;20233;-65
2021/07/06 10:15:49;;;;;;;2.85;1.73;;;;;;;26.07;47.12;100515.66;6205917;28;20277;-65
2021/07/06 10:19:10;;;;;;;2.10;1.50;;;;;;;26.42;46.83;100505.81;6195976;28;20248;-65
2021/07/06 10:22:33;;;;;;;1.52;1.42;;;;;;;26.00;47.26;100522.47;6195142;28;20226;-66
2021/07/06 10:25:55;;;;;;;4.45;1.40;;;;;;;25.41;48.75;100530.56;6203173;28;20711;-64
2021/07/06 10:29:31;;;;;;;1.73;1.63;;;;;;;25.70;48.95;100531.81;6197770;28;20507;-65
2021/07/06 10:32:54;;;;;;;2.33;1.80;;;;;;;25.79;48.99;100524.94;6202371;28;20224;-63
2021/07/06 10:36:16;;;;;;;1.60;1.50;;;;;;;25.71;49.87;100520.22;6201611;28;20268;-64
2021/07/06 10:39:47;;;;;;;2.75;1.70;;;;;;;25.55;49.01;100519.69;6198587;28;20229;-63
2021/07/06 10:43:08;;;;;;;3.88;1.83;;;;;;;25.45;49.71;100534.69;6192105;28;20249;-65
2021/07/06 10:46:45;;;;;;;2.25;1.95;;;;;;;25.07;47.78;100536.59;6209233;28;20234;-64
2021/07/06 10:50:26;;;;;;;1.30;1.20;;;;;;;25.12;47.60;100529.06;6198800;28;20229;-65
2021/07/06 10:54:03;;;;;;;3.55;2.17;;;;;;;25.20;48.13;100533.00;6197478;28;20237;-64
2021/07/06 10:57:25;;;;;;;5.28;1.42;;;;;;;25.07;47.49;100538.41;6199746;28;20233;-63
2021/07/06 11:00:46;;;;;;;4.72;1.52;;;;;;;25.12;48.44;100530.91;6200773;28;20225;-64
2021/07/06 11:04:09;;;;;;;5.60;1.80;;;;;;;25.21;48.31;100540.88;6198889;28;20233;-64
2021/07/06 11:07:57;;;;;;;1.67;1.42;;;;;;;25.26;48.57;100543.22;6202001;28;20233;-61
2021/07/06 11:11:36;;;;;;;1.60;1.50;;;;;;;25.39;48.10;100524.50;6199170;28;20434;-64
2021/07/06 11:14:59;;;;;;;3.28;2.03;;;;;;;25.00;49.20;100515.84;6194619;28;20225;-63
2021/07/06 11:18:40;;;;;;;1.50;1.40;;;;;;;25.01;49.21;100537.03;6205274;28;22615;-65
2021/07/06 11:22:10;;;;;;;1.88;1.55;;;;;;;24.70;49.67;100543.78;6198697;28;20501;-64
2021/07/06 11:25:39;;;;;;;1.48;1.20;;;;;;;25.13;49.67;100541.44;6201053;28;20248;-64
2021/07/06 11:29:03;;;;;;;3.80;1.70;;;;;;;25.02;49.84;100548.53;6189701;28;20229;-65
2021/07/06 11:32:25;;;;;;;3.03;1.38;;;;;;;25.32;49.22;100545.44;6205104;28;20643;-65
2021/07/06 11:35:48;;;;;;;6.25;2.05;;;;;;;24.85;50.17;100545.28;6201899;28;20233;-64
2021/07/06 11:39:10;;;;;;;3.28;1.83;;;;;;;24.89;51.25;100538.81;6201396;28;20229;-64
2021/07/06 11:42:31;;;;;;;2.10;1.60;;;;;;;24.89;51.30;100538.81;6205457;28;20352;-65
2021/07/06 11:45:54;;;;;;;3.47;1.52;;;;;;;24.99;51.76;100533.66;6189446;28;20229;-66
2021/07/06 11:49:22;;;;;;;3.80;1.80;;;;;;;24.56;52.66;100521.66;6192720;28;20261;-66
2021/07/06 11:52:43;;;;;;;3.88;1.90;;;;;;;24.79;52.33;100513.78;6199804;28;20251;-62
2021/07/06 11:56:05;;;;;;;3.45;1.65;;;;;;;24.57;53.34;100506.53;6208488;28;20225;-64
2021/07/06 11:59:26;;;;;;;5.30;2.10;;;;;;;24.65;52.07;100492.66;6206178;28;20323;-67
2021/07/06 12:02:47;;;;;;;4.15;1.77;;;;;;;24.23;52.27;100502.75;6206952;28;20237;-66
2021/07/06 12:06:12;;;;;;;1.50;1.40;;;;;;;24.11;52.64;100526.59;6201278;28;20327;-65
2021/07/06 12:09:33;;;;;;;1.75;1.60;;;;;;;24.03;53.85;100515.66;6205854;28;20253;-65
2021/07/06 12:13:04;;;;;;;3.42;1.63;;;;;;;23.91;54.32;100519.19;6201803;28;20320;-63
2021/07/06 12:16:27;;;;;;;2.63;1.67;;;;;;;23.90;54.01;100522.78;6208381;28;20345;-64
2021/07/06 12:19:48;;;;;;;1.83;1.30;;;;;;;24.13;52.14;100476.81;6206655;28;20336;-65
2021/07/06 12:23:10;;;;;;;2.17;1.42;;;;;;;24.24;52.73;100398.91;6203138;28;20288;-64
2021/07/06 12:26:32;;;;;;;2.60;1.00;;;;;;;24.20;52.90;100362.84;6198582;28;20324;-63
2021/07/06 12:30:02;;;;;;;1.65;1.35;;;;;;;23.87;52.61;100388.25;6200780;28;20245;-64
2021/07/06 12:33:25;;;;;;;2.25;1.10;;;;;;;23.82;53.15;100411.66;6189536;28;20244;-64
2021/07/06 12:36:54;;;;;;;1.73;1.40;;;;;;;23.93;53.26;100421.53;6197045;28;20494;-67
2021/07/06 12:40:18;;;;;;;3.53;1.30;;;;;;;23.73;53.92;100437.06;6194940;28;20457;-67
2021/07/06 12:43:38;;;;;;;4.53;4.13;;;;;;;24.10;53.55;100418.53;6206458;28;20237;-63
2021/07/06 12:47:17;;;;;;;2.75;1.38;;;;;;;23.59;53.22;100368.94;6210025;28;20248;-64
2021/07/06 12:50:38;;;;;;;1.13;1.02;;;;;;;23.71;53.05;100361.91;6201772;28;20639;-65
2021/07/06 12:54:01;;;;;;;1.88;1.02;;;;;;;23.91;52.55;100418.16;6208322;28;20229;-68
2021/07/06 12:57:29;;;;;;;6.72;1.10;;;;;;;24.00;52.25;100494.63;6202443;28;21543;-64
2021/07/06 13:00:53;;;;;;;1.20;1.10;;;;;;;23.65;53.47;100505.00;6197110;28;20228;-64
2021/07/06 13:04:14;;;;;;;1.52;1.10;;;;;;;23.70;52.75;100510.84;6206335;28;20252;-65
2021/07/06 13:07:35;;;;;;;1.50;0.85;;;;;;;23.50;53.26;100520.22;6202772;28;20312;-65
2021/07/06 13:11:00;;;;;;;1.50;1.10;;;;;;;23.31;53.78;100512.63;6205332;28;20504;-62
2021/07/06 13:14:24;;;;;;;2.22;1.10;;;;;;;23.27;54.01;100529.72;6205644;28;20612;-65
2021/07/06 13:17:46;;;;;;;2.50;1.10;;;;;;;23.19;53.76;100532.88;6198455;28;20226;-67
2021/07/06 13:21:09;;;;;;;1.58;1.20;;;;;;;23.93;52.03;100522.59;6196186;28;20662;-66
2021/07/06 13:24:31;;;;;;;2.33;1.40;;;;;;;23.17;53.40;100571.97;6196211;28;20240;-67
2021/07/06 13:27:57;;;;;;;4.35;1.70;;;;;;;23.47;54.00;100566.41;6208262;28;20229;-64
2021/07/06 13:31:22;;;;;;;2.00;1.20;;;;;;;23.83;52.50;100570.25;6195401;28;20363;-65
2021/07/06 13:34:43;;;;;;;1.33;1.23;;;;;;;27.18;44.63;100559.28;6194162;28;20241;-66
2021/07/06 13:38:03;;;;;;;4.70;1.60;;;;;;;28.98;40.16;100557.97;6175813;28;20242;-67
2021/07/06 13:41:24;;;;;;;2.60;1.10;;;;;;;28.17;41.19;100554.50;6192884;28;20228;-66
2021/07/06 13:44:45;;;;;;;1.27;1.17;;;;;;;27.92;41.48;100575.38;6192779;28;20872;-66
2021/07/06 13:48:08;;;;;;;1.10;0.75;;;;;;;27.71;41.06;100553.13;6203846;28;20544;-65
2021/07/06 13:51:29;;;;;;;1.40;1.30;;;;;;;28.46;40.61;100568.84;6199998;28;20240;-67
2021/07/06 13:54:50;;;;;;;1.45;0.82;;;;;;;25.70;46.43;100579.81;6201693;28;20323;-66
2021/07/06 13:58:12;;;;;;;0.73;0.68;;;;;;;27.28;43.87;100582.50;6203944;28;20240;-66
2021/07/06 14:01:33;;;;;;;1.52;0.95;;;;;;;25.30;48.98;100585.53;6201661;28;20323;-66
2021/07/06 14:04:55;;;;;;;1.33;0.90;;;;;;;25.01;50.30;100578.78;6201852;28;20229;-67
2021/07/06 14:08:18;;;;;;;1.73;1.20;;;;;;;27.56;45.54;100558.78;6197817;28;21468;-50
2021/07/06 14:11:38;;;;;;;3.53;1.48;;;;;;;27.08;46.01;100561.88;6203491;28;20575;-47
2021/07/06 14:15:00;;;;;;;1.15;1.05;;;;;;;26.30;48.17;100564.53;6202947;28;20255;-54
2021/07/06 14:18:21;;;;;;;2.28;1.13;;;;;;;27.26;46.54;100584.44;6203234;28;20237;-48
2021/07/06 14:21:44;;;;;;;3.28;1.30;;;;;;;27.06;47.77;100593.22;6206539;28;20229;-47
2021/07/06 14:25:07;;;;;;;2.35;1.75;;;;;;;26.37;49.28;100583.59;6205029;28;20236;-48
2021/07/06 14:28:28;;;;;;;1.45;1.17;;;;;;;26.00;50.33;100583.81;6173931;28;20229;-50
2021/07/06 14:31:48;;;;;;;2.53;1.40;;;;;;;25.73;51.56;100584.94;6203491;28;20236;-48
2021/07/06 14:35:12;;;;;;;1.95;1.60;;;;;;;25.46;52.82;100579.06;6202789;28;20229;-49
2021/07/06 14:38:34;;;;;;;3.88;1.58;;;;;;;25.93;52.06;100582.59;6203181;28;20221;-48
2021/07/06 14:41:55;;;;;;;1.35;1.25;;;;;;;26.46;50.46;100580.19;6206941;28;20260;-48
2021/07/06 14:45:16;;;;;;;2.30;1.77;;;;;;;26.12;50.87;100593.53;6205953;28;20225;-49
2021/07/06 14:48:37;;;;;;;1.30;1.20;;;;;;;25.82;51.78;100587.88;6196826;28;20929;-49
2021/07/06 14:51:59;;;;;;;1.98;1.77;;;;;;;25.55;52.51;100589.00;6204237;28;20233;-49
2021/07/06 14:55:21;;;;;;;3.78;1.67;;;;;;;26.77;50.16;100575.06;6181855;28;20270;-50
2021/07/06 14:58:42;;;;;;;2.47;1.85;;;;;;;26.88;49.34;100563.53;6208148;28;20603;-52
2021/07/06 15:02:05;;;;;;;1.52;1.42;;;;;;;25.97;51.57;100576.03;6209867;28;20233;-49
2021/07/06 15:05:27;;;;;;;2.97;1.90;;;;;;;26.25;51.04;100579.22;6200418;28;20237;-50
2021/07/06 15:08:48;;;;;;;4.95;2.13;;;;;;;26.66;49.74;100567.09;6206931;28;20533;-53
2021/07/06 15:12:11;;;;;;;1.73;1.40;;;;;;;26.38;50.57;100553.25;6203068;28;20241;-48
2021/07/06 15:15:32;;;;;;;1.30;1.20;;;;;;;26.76;49.09;100559.19;6208879;28;20226;-48
2021/07/06 15:18:53;;;;;;;1.45;1.30;;;;;;;25.59;51.07;100577.16;6209811;28;20237;-51
2021/07/06 15:22:14;;;;;;;2.03;1.25;;;;;;;25.79;50.08;100572.13;6208510;28;20320;-48
2021/07/06 15:25:36;;;;;;;2.47;1.45;;;;;;;26.37;46.88;100564.91;6210238;28;20241;-54
2021/07/06 15:28:58;;;;;;;4.82;1.80;;;;;;;26.28;47.76;100577.16;6209306;28;20236;-49
2021/07/06 15:32:19;;;;;;;3.13;2.40;;;;;;;26.67;47.08;100547.41;6208957;28;20303;-49
2021/07/06 15:35:41;;;;;;;2.42;1.40;;;;;;;26.86;46.41;100558.31;6200612;28;20237;-48
2021/07/06 15:39:02;;;;;;;1.85;1.05;;;;;;;27.29;44.73;100567.28;6205285;28;20229;-48
2021/07/06 15:42:23;;;;;;;1.95;1.50;;;;;;;26.52;45.70;100560.16;6215190;28;20646;-52